Time;durP1;ratioP1;P1;durP2;ratioP2;P2;SDS_P1;SDS_P2;PMS_P1;PMS_P2;Temp;Humidity;BMP_temperature;BMP_pressure;BME280_temperature;BME280_humidity;BME280_pressure;Samples;Min_cycle;Max_cycle;Signal;HPM_P1;HPM_P2
2023/01/23 00:02:57;;;;;;;1.20;1.10;;;;;;;6.36;nan;103542.09;6129758;28;20243;-76
2023/01/23 00:06:18;;;;;;;1.20;1.10;;;;;;;6.47;nan;103542.69;6140951;28;20239;-76
2023/01/23 00:09:40;;;;;;;1.20;1.10;;;;;;;6.59;nan;103540.56;6121482;28;20660;-76
2023/01/23 00:13:01;;;;;;;4.67;1.67;;;;;;;6.50;nan;103549.75;6114723;28;20809;-76
2023/01/23 00:16:28;;;;;;;1.40;1.30;;;;;;;6.41;nan;103547.31;6119105;28;20239;-76
2023/01/23 00:19:52;;;;;;;1.10;1.10;;;;;;;6.72;nan;103555.34;6112190;28;20236;-76
2023/01/23 00:23:15;;;;;;;1.73;1.50;;;;;;;6.79;nan;103565.84;6110797;29;20247;-76
2023/01/23 00:26:38;;;;;;;1.97;1.83;;;;;;;6.81;nan;103560.44;6130201;28;20239;-75
2023/01/23 00:29:58;;;;;;;1.07;1.07;;;;;;;6.80;nan;103556.88;6100448;28;20264;-74
2023/01/23 00:33:20;;;;;;;1.50;1.40;;;;;;;6.81;nan;103563.13;6107333;29;20236;-75
2023/01/23 00:36:44;;;;;;;1.23;1.03;;;;;;;6.79;nan;103563.19;6111585;28;20655;-76
2023/01/23 00:40:06;;;;;;;2.30;2.10;;;;;;;6.58;nan;103560.25;6115167;28;20243;-76
2023/01/23 00:43:30;;;;;;;2.30;1.27;;;;;;;6.58;nan;103560.25;6108954;28;20359;-75
2023/01/23 00:46:51;;;;;;;0.97;0.90;;;;;;;6.64;nan;103568.09;6107461;28;20554;-75
2023/01/23 00:50:13;;;;;;;1.50;1.33;;;;;;;6.63;nan;103567.25;6122601;28;20223;-75
2023/01/23 00:53:34;;;;;;;1.50;1.40;;;;;;;6.78;nan;103565.91;6113051;29;20282;-76
2023/01/23 00:56:56;;;;;;;1.20;1.20;;;;;;;6.72;nan;103571.44;6115949;29;20326;-75
2023/01/23 01:00:19;;;;;;;0.70;0.70;;;;;;;6.84;nan;103571.09;6121252;28;20230;-76
2023/01/23 01:03:39;;;;;;;1.23;1.17;;;;;;;6.84;nan;103579.13;6139183;28;20247;-75
2023/01/23 01:07:02;;;;;;;1.27;1.00;;;;;;;6.74;nan;103574.97;6128001;28;20314;-76
2023/01/23 01:10:29;;;;;;;1.40;1.30;;;;;;;6.76;nan;103578.47;6132500;28;20318;-75
2023/01/23 01:13:50;;;;;;;1.33;1.23;;;;;;;6.83;nan;103580.03;6134690;28;20240;-75
2023/01/23 01:17:13;;;;;;;1.80;1.63;;;;;;;6.77;nan;103581.09;6118687;29;20232;-75
2023/01/23 01:20:34;;;;;;;1.00;1.00;;;;;;;6.78;nan;103584.69;6123071;28;21318;-74
2023/01/23 01:23:55;;;;;;;1.80;1.67;;;;;;;6.75;nan;103574.03;6120966;28;21886;-73
2023/01/23 01:27:15;;;;;;;1.70;0.93;;;;;;;6.75;nan;103582.06;6138587;28;20554;-76
2023/01/23 01:30:36;;;;;;;3.30;1.20;;;;;;;6.74;nan;103597.25;6136271;28;20238;-76
2023/01/23 01:33:59;;;;;;;1.47;1.33;;;;;;;6.58;nan;103589.72;6127026;28;20314;-75
2023/01/23 01:37:21;;;;;;;5.07;1.90;;;;;;;6.65;nan;103596.66;6127180;28;20350;-76
2023/01/23 01:40:42;;;;;;;2.93;2.00;;;;;;;6.39;nan;103602.75;6125758;28;20333;-75
2023/01/23 01:44:04;;;;;;;1.07;1.07;;;;;;;6.52;nan;103598.81;6116648;28;20235;-76
2023/01/23 01:47:25;;;;;;;3.20;1.50;;;;;;;6.58;nan;103601.31;6110187;28;20240;-77
2023/01/23 01:50:47;;;;;;;2.13;1.10;;;;;;;6.55;nan;103613.94;6136739;28;20222;-75
2023/01/23 01:54:16;;;;;;;2.37;2.17;;;;;;;6.54;nan;103609.47;6102242;28;20641;-76
2023/01/23 01:57:42;;;;;;;1.07;1.00;;;;;;;6.57;nan;103610.28;6118537;28;20226;-75
2023/01/23 02:01:03;;;;;;;1.47;0.97;;;;;;;6.42;nan;103608.03;6111266;28;20251;-77
2023/01/23 02:04:24;;;;;;;1.07;0.87;;;;;;;6.17;nan;103610.53;6120341;28;20318;-77
2023/01/23 02:07:53;;;;;;;2.43;1.27;;;;;;;6.31;nan;103612.81;6128659;28;20549;-75
2023/01/23 02:11:15;;;;;;;4.53;1.73;;;;;;;6.46;nan;103625.78;6130330;28;20253;-76
2023/01/23 02:14:37;;;;;;;1.03;0.90;;;;;;;6.38;nan;103625.97;6123366;28;20239;-76
2023/01/23 02:17:58;;;;;;;1.20;1.10;;;;;;;6.44;nan;103620.47;6135252;28;20234;-76
2023/01/23 02:21:21;;;;;;;1.67;1.03;;;;;;;6.50;nan;103632.81;6113332;28;20231;-75
2023/01/23 02:24:54;;;;;;;2.53;1.70;;;;;;;6.40;nan;103626.81;6133500;28;20235;-76
2023/01/23 02:28:17;;;;;;;1.30;1.20;;;;;;;6.41;nan;103625.03;6122739;28;20239;-77
2023/01/23 02:31:41;;;;;;;1.20;1.10;;;;;;;6.36;nan;103622.47;6134707;28;20345;-77
2023/01/23 02:35:08;;;;;;;2.80;1.30;;;;;;;6.35;nan;103615.38;6134670;28;20238;-76
2023/01/23 02:38:35;;;;;;;1.13;1.00;;;;;;;6.34;nan;103618.09;6121938;28;20617;-76
2023/01/23 02:41:57;;;;;;;4.83;1.40;;;;;;;6.39;nan;103619.72;6115077;28;20240;-77
2023/01/23 02:45:33;;;;;;;1.83;1.50;;;;;;;6.17;nan;103621.22;6134895;28;20231;-76
2023/01/23 02:48:54;;;;;;;1.73;1.40;;;;;;;6.29;nan;103614.66;6115988;28;20231;-77
2023/01/23 02:52:17;;;;;;;1.80;1.53;;;;;;;6.38;nan;103606.38;6101476;28;20292;-76
2023/01/23 02:55:41;;;;;;;2.43;1.03;;;;;;;6.32;nan;103603.88;6113846;28;20258;-76
2023/01/23 03:02:42;;;;;;;2.50;2.30;;;;;;;6.38;nan;103609.91;6107997;28;20239;-75
2023/01/23 03:06:04;;;;;;;3.43;1.77;;;;;;;6.45;nan;103602.59;6103728;28;20250;-76
2023/01/23 03:09:26;;;;;;;2.23;1.60;;;;;;;6.49;nan;103601.56;6092200;28;20239;-75
2023/01/23 03:12:46;;;;;;;1.50;1.37;;;;;;;6.42;nan;103606.22;6136654;28;20235;-75
2023/01/23 03:16:08;;;;;;;1.60;1.50;;;;;;;6.20;nan;103602.38;6133587;28;20235;-76
2023/01/23 03:19:31;;;;;;;1.30;1.20;;;;;;;6.22;nan;103600.53;6121428;28;20262;-76
2023/01/23 03:22:52;;;;;;;1.83;1.57;;;;;;;6.12;nan;103604.38;6129706;28;20231;-75
2023/01/23 03:26:14;;;;;;;3.33;1.97;;;;;;;6.00;nan;103609.19;6114512;28;20235;-75
2023/01/23 03:33:14;;;;;;;2.80;1.57;;;;;;;6.15;nan;103614.16;6104104;28;20764;-75
2023/01/23 03:36:36;;;;;;;3.87;1.47;;;;;;;6.13;nan;103621.34;6106396;28;20235;-75
2023/01/23 03:43:37;;;;;;;2.23;2.03;;;;;;;6.28;nan;103628.94;6135626;28;20625;-76
2023/01/23 03:46:59;;;;;;;1.90;1.47;;;;;;;6.26;nan;103633.47;6115853;28;20227;-75
2023/01/23 03:50:20;;;;;;;1.70;1.60;;;;;;;6.11;nan;103632.06;6137365;28;21536;-75
2023/01/23 03:53:42;;;;;;;2.07;1.77;;;;;;;6.12;nan;103641.88;6126512;28;20238;-75
2023/01/23 03:57:04;;;;;;;2.37;1.87;;;;;;;6.07;nan;103638.44;6135742;28;20560;-76
2023/01/23 04:00:45;;;;;;;2.33;1.83;;;;;;;6.15;nan;103643.59;6127932;28;20235;-75
2023/01/23 04:04:07;;;;;;;2.40;2.20;;;;;;;6.13;nan;103645.44;6121108;28;20254;-76
2023/01/23 04:07:28;;;;;;;1.90;1.80;;;;;;;6.17;nan;103639.97;6134588;28;20246;-75
2023/01/23 04:10:50;;;;;;;1.87;1.77;;;;;;;6.00;nan;103642.22;6136447;28;21104;-74
2023/01/23 04:14:11;;;;;;;1.90;1.80;;;;;;;6.05;nan;103647.44;6136188;28;20239;-75
2023/01/23 04:17:32;;;;;;;2.33;2.13;;;;;;;6.12;nan;103639.19;6125055;28;20313;-76
2023/01/23 04:20:53;;;;;;;1.73;1.50;;;;;;;6.13;nan;103640.09;6144147;28;20559;-75
2023/01/23 04:24:15;;;;;;;1.93;1.77;;;;;;;6.10;nan;103654.44;6121940;28;20243;-76
2023/01/23 04:27:37;;;;;;;2.30;2.07;;;;;;;6.09;nan;103649.97;6127857;28;20513;-76
2023/01/23 04:30:59;;;;;;;1.40;1.23;;;;;;;6.04;nan;103659.06;6117686;28;20674;-76
2023/01/23 04:34:23;;;;;;;2.40;2.20;;;;;;;5.99;nan;103660.97;6133390;28;20597;-76
2023/01/23 04:37:46;;;;;;;1.40;1.30;;;;;;;6.05;nan;103661.69;6109513;28;20609;-76
2023/01/23 04:41:09;;;;;;;2.00;1.80;;;;;;;6.02;nan;103669.81;6107682;28;20236;-75
2023/01/23 04:44:33;;;;;;;2.20;2.00;;;;;;;6.00;nan;103668.09;6105694;28;20251;-75
2023/01/23 04:48:13;;;;;;;1.63;1.50;;;;;;;6.04;nan;103667.09;6109453;28;20765;-74
2023/01/23 04:51:34;;;;;;;2.47;2.07;;;;;;;6.08;nan;103669.66;6114882;28;20223;-76
2023/01/23 04:54:55;;;;;;;1.43;1.33;;;;;;;6.01;nan;103670.72;6133313;28;20246;-76
2023/01/23 04:58:18;;;;;;;2.50;2.30;;;;;;;5.92;nan;103668.28;6111139;28;20607;-76
2023/01/23 05:01:40;;;;;;;4.17;3.40;;;;;;;5.90;nan;103675.47;6106607;28;20537;-75
2023/01/23 05:05:01;;;;;;;4.17;3.77;;;;;;;5.93;nan;103663.78;6118192;28;20243;-75
2023/01/23 05:08:25;;;;;;;2.47;2.27;;;;;;;6.01;nan;103673.41;6110999;28;20342;-75
2023/01/23 05:11:57;;;;;;;2.97;2.77;;;;;;;6.11;nan;103680.28;6117772;28;20288;-75
2023/01/23 05:15:20;;;;;;;1.60;1.50;;;;;;;5.97;nan;103678.84;6120005;28;20234;-76
2023/01/23 05:18:42;;;;;;;2.23;1.70;;;;;;;6.04;nan;103686.72;6119927;28;20234;-76
2023/01/23 05:22:03;;;;;;;10.47;8.87;;;;;;;6.08;nan;103684.84;6129499;28;20984;-74
2023/01/23 05:25:27;;;;;;;8.23;6.03;;;;;;;5.99;nan;103687.72;6132609;28;20238;-76
2023/01/23 05:28:49;;;;;;;2.90;2.40;;;;;;;5.99;nan;103699.34;6118697;28;20617;-76
2023/01/23 05:32:10;;;;;;;3.80;2.33;;;;;;;6.06;nan;103694.72;6126200;28;22165;-75
2023/01/23 05:35:32;;;;;;;2.53;2.33;;;;;;;6.26;nan;103695.97;6126964;28;20616;-75
2023/01/23 05:38:55;;;;;;;1.67;1.57;;;;;;;6.28;nan;103704.84;6121818;28;20238;-75
2023/01/23 05:42:19;;;;;;;1.93;1.60;;;;;;;6.51;nan;103716.78;6118787;28;20235;-76
2023/01/23 05:45:58;;;;;;;2.43;1.97;;;;;;;6.71;nan;103717.09;6088820;28;20240;-75
2023/01/23 05:49:26;;;;;;;1.97;1.80;;;;;;;6.54;nan;103720.25;6127282;28;20620;-75
2023/01/23 05:52:49;;;;;;;2.23;2.03;;;;;;;6.49;nan;103718.63;6127703;28;20561;-75
2023/01/23 05:56:13;;;;;;;2.77;2.47;;;;;;;6.52;nan;103715.84;6118959;28;20243;-75
2023/01/23 05:59:49;;;;;;;3.27;2.30;;;;;;;6.52;nan;103726.56;6110851;28;20310;-75
2023/01/23 06:03:28;;;;;;;2.07;1.87;;;;;;;6.36;nan;103718.91;6132357;28;20286;-75
2023/01/23 06:06:58;;;;;;;1.70;1.60;;;;;;;6.47;nan;103726.66;6105745;28;20235;-75
2023/01/23 06:10:20;;;;;;;3.57;2.60;;;;;;;6.34;nan;103728.78;6134078;28;20238;-75
2023/01/23 06:13:41;;;;;;;1.90;1.80;;;;;;;6.39;nan;103728.69;6091876;29;20799;-75
2023/01/23 06:17:02;;;;;;;2.83;2.30;;;;;;;6.52;nan;103730.13;6108589;28;20235;-75
2023/01/23 06:20:23;;;;;;;2.63;2.43;;;;;;;6.33;nan;103731.50;6095287;28;20231;-75
2023/01/23 06:23:44;;;;;;;6.27;4.53;;;;;;;6.41;nan;103725.03;6113309;28;20322;-75
2023/01/23 06:27:07;;;;;;;11.10;6.07;;;;;;;6.35;nan;103729.69;6117764;28;20231;-74
2023/01/23 06:30:30;;;;;;;6.53;4.10;;;;;;;6.51;nan;103738.22;6127346;28;20235;-75
2023/01/23 06:33:51;;;;;;;2.50;2.30;;;;;;;6.57;nan;103746.09;6137053;28;20570;-75
2023/01/23 06:37:12;;;;;;;2.37;2.07;;;;;;;6.33;nan;103743.13;6130031;28;20302;-75
2023/01/23 06:40:36;;;;;;;3.40;2.17;;;;;;;6.30;nan;103753.03;6122228;28;20790;-75
2023/01/23 06:44:28;;;;;;;2.30;2.03;;;;;;;6.32;nan;103740.47;6103037;28;20677;-74
2023/01/23 06:47:51;;;;;;;3.27;2.40;;;;;;;6.39;nan;103734.03;6104991;28;20541;-75
2023/01/23 06:51:13;;;;;;;5.17;2.93;;;;;;;6.39;nan;103742.97;6119090;28;20226;-75
2023/01/23 06:54:37;;;;;;;2.83;2.37;;;;;;;6.45;nan;103744.59;6095562;28;20235;-75
2023/01/23 06:57:59;;;;;;;2.10;1.90;;;;;;;6.47;nan;103752.63;6090165;28;20235;-72
2023/01/23 07:01:23;;;;;;;3.13;2.60;;;;;;;6.35;nan;103760.03;6096628;28;20319;-73
2023/01/23 07:05:03;;;;;;;2.63;2.43;;;;;;;6.33;nan;103763.66;6109917;28;20242;-72
2023/01/23 07:08:23;;;;;;;4.63;3.03;;;;;;;6.48;nan;103774.00;6117232;28;20247;-73
2023/01/23 07:11:46;;;;;;;4.07;3.33;;;;;;;6.32;nan;103772.63;6115938;28;20235;-73
2023/01/23 07:15:08;;;;;;;10.33;2.70;;;;;;;6.28;nan;103773.59;6091545;28;20237;-73
2023/01/23 07:18:34;;;;;;;5.00;3.10;;;;;;;6.30;nan;103775.31;6097615;28;20224;-73
2023/01/23 07:21:59;;;;;;;6.33;4.67;;;;;;;6.13;nan;103780.19;6079776;28;20715;-74
2023/01/23 07:25:20;;;;;;;4.53;3.93;;;;;;;6.19;nan;103782.75;6115412;28;20508;-74
2023/01/23 07:28:42;;;;;;;4.40;4.07;;;;;;;6.24;nan;103783.50;6107575;28;20326;-73
2023/01/23 07:32:03;;;;;;;3.73;3.40;;;;;;;6.28;nan;103782.53;6114726;28;20521;-70
2023/01/23 07:35:26;;;;;;;2.90;2.47;;;;;;;6.47;nan;103789.19;6126741;28;20230;-72
2023/01/23 07:38:47;;;;;;;2.93;2.67;;;;;;;6.41;nan;103789.34;6104023;28;20244;-71
2023/01/23 07:42:08;;;;;;;3.37;2.83;;;;;;;6.44;nan;103789.28;6121934;28;20276;-73
2023/01/23 07:45:29;;;;;;;3.73;2.93;;;;;;;6.52;nan;103793.56;6130634;28;20238;-72
2023/01/23 07:48:50;;;;;;;3.10;2.80;;;;;;;6.70;nan;103798.44;6122171;28;20240;-70
2023/01/23 07:52:12;;;;;;;2.70;2.50;;;;;;;6.60;nan;103791.56;6121170;28;20235;-71
2023/01/23 07:55:33;;;;;;;4.70;3.50;;;;;;;6.62;nan;103804.00;6116934;28;20231;-72
2023/01/23 07:58:54;;;;;;;2.90;2.70;;;;;;;6.76;nan;103809.03;6101717;28;20245;-71
2023/01/23 08:02:14;;;;;;;2.93;2.73;;;;;;;6.69;nan;103819.03;6100095;29;20268;-72
2023/01/23 08:05:35;;;;;;;4.83;3.50;;;;;;;6.65;nan;103811.09;6102659;28;20423;-72
2023/01/23 08:08:58;;;;;;;3.17;2.97;;;;;;;6.26;nan;103819.19;6092163;29;20239;-72
2023/01/23 08:12:19;;;;;;;2.47;2.20;;;;;;;6.46;nan;103821.38;6092581;29;20243;-72
2023/01/23 08:15:40;;;;;;;2.70;2.50;;;;;;;6.63;nan;103820.97;6101043;28;20290;-72
2023/01/23 08:19:00;;;;;;;3.00;2.47;;;;;;;6.51;nan;103822.13;6093133;28;20315;-70
2023/01/23 08:22:21;;;;;;;3.13;2.70;;;;;;;6.71;nan;103821.66;6111396;28;20236;-72
2023/01/23 08:25:44;;;;;;;3.27;2.17;;;;;;;6.73;nan;103819.81;6106539;28;20254;-71
2023/01/23 08:29:05;;;;;;;3.57;2.57;;;;;;;6.52;nan;103831.06;6098611;28;20243;-72
2023/01/23 08:32:26;;;;;;;3.80;3.47;;;;;;;6.59;nan;103833.56;6107737;28;20232;-72
2023/01/23 08:35:51;;;;;;;4.77;3.13;;;;;;;6.66;nan;103843.19;6129527;28;20691;-72
2023/01/23 08:39:11;;;;;;;4.77;3.40;;;;;;;6.61;nan;103850.50;6099122;28;20243;-71
2023/01/23 08:42:34;;;;;;;3.53;2.40;;;;;;;6.61;nan;103860.34;6107584;29;20408;-70
2023/01/23 08:45:57;;;;;;;3.07;2.33;;;;;;;6.47;nan;103849.94;6091985;28;20242;-74
2023/01/23 08:49:19;;;;;;;3.10;2.77;;;;;;;6.64;nan;103857.56;6091983;28;20240;-71
2023/01/23 08:52:40;;;;;;;2.87;2.23;;;;;;;6.65;nan;103857.53;6114723;28;20240;-72
2023/01/23 08:56:01;;;;;;;4.27;3.17;;;;;;;6.72;nan;103858.25;6143944;28;20573;-70
2023/01/23 08:59:24;;;;;;;5.13;4.43;;;;;;;6.67;nan;103873.59;6100906;28;20250;-71
2023/01/23 09:02:44;;;;;;;11.53;9.10;;;;;;;6.94;nan;103864.84;6127932;28;20243;-70
2023/01/23 09:06:06;;;;;;;6.27;5.03;;;;;;;6.58;nan;103869.31;6118745;28;20251;-70
2023/01/23 09:09:29;;;;;;;8.13;3.30;;;;;;;6.73;nan;103873.44;6109063;28;20654;-71
2023/01/23 09:12:50;;;;;;;4.57;2.97;;;;;;;7.03;nan;103867.31;6116742;28;20231;-73
2023/01/23 09:16:13;;;;;;;3.90;3.33;;;;;;;6.86;nan;103877.56;6109442;28;20505;-73
2023/01/23 09:19:34;;;;;;;4.97;3.50;;;;;;;6.53;nan;103879.25;6102908;28;21941;-71
2023/01/23 09:22:55;;;;;;;6.43;3.70;;;;;;;6.65;nan;103875.41;6124653;28;20521;-71
2023/01/23 09:26:16;;;;;;;3.10;2.70;;;;;;;6.75;nan;103861.75;6129515;28;20325;-73
2023/01/23 09:29:37;;;;;;;6.23;3.60;;;;;;;6.91;nan;103870.28;6115360;28;20239;-74
2023/01/23 09:32:59;;;;;;;4.40;3.47;;;;;;;6.97;nan;103864.75;6129548;28;20265;-70
2023/01/23 09:36:20;;;;;;;3.50;3.07;;;;;;;6.86;nan;103865.03;6116514;28;20239;-74
2023/01/23 09:39:42;;;;;;;4.23;3.63;;;;;;;7.01;nan;103875.34;6097762;28;20239;-73
2023/01/23 09:43:13;;;;;;;3.67;3.37;;;;;;;6.60;nan;103875.53;6115342;28;20251;-72
2023/01/23 09:46:37;;;;;;;4.87;3.80;;;;;;;6.81;nan;103861.59;6113168;28;20383;-71
2023/01/23 09:50:02;;;;;;;4.63;3.47;;;;;;;7.11;nan;103862.59;6117131;28;20239;-74
2023/01/23 09:53:30;;;;;;;4.63;3.53;;;;;;;7.11;nan;103863.47;6100304;28;20232;-71
2023/01/23 09:56:54;;;;;;;6.60;4.10;;;;;;;7.27;nan;103872.00;6118389;28;20234;-73
2023/01/23 10:00:20;;;;;;;3.77;3.43;;;;;;;7.20;nan;103871.28;6110508;28;20242;-72
2023/01/23 10:03:41;;;;;;;4.07;3.37;;;;;;;7.16;nan;103874.06;6115376;28;20235;-71
2023/01/23 10:07:17;;;;;;;4.60;3.37;;;;;;;7.48;nan;103867.84;6118541;28;20239;-71
2023/01/23 10:10:53;;;;;;;3.50;3.20;;;;;;;7.35;nan;103859.25;6105684;28;22654;-70
2023/01/23 10:14:34;;;;;;;6.33;4.17;;;;;;;7.58;nan;103853.22;6080810;28;20326;-73
2023/01/23 10:18:08;;;;;;;6.83;5.07;;;;;;;7.47;nan;103836.56;6117881;28;20239;-73
2023/01/23 10:21:35;;;;;;;5.37;4.73;;;;;;;7.53;nan;103847.13;6124309;28;20231;-70
2023/01/23 10:24:58;;;;;;;9.83;7.27;;;;;;;7.61;nan;103848.69;6102544;28;20571;-71
2023/01/23 10:28:29;;;;;;;11.67;7.97;;;;;;;7.66;nan;103846.72;6121457;28;20719;-73
2023/01/23 10:31:55;;;;;;;4.23;3.83;;;;;;;7.65;nan;103838.72;6103464;28;20555;-72
2023/01/23 10:35:19;;;;;;;5.83;4.20;;;;;;;7.32;nan;103847.72;6117723;28;20230;-71
2023/01/23 10:38:48;;;;;;;8.93;4.30;;;;;;;7.50;nan;103858.84;6103055;28;20236;-71
2023/01/23 10:42:12;;;;;;;7.17;5.00;;;;;;;7.30;nan;103855.84;6102359;28;20243;-72
2023/01/23 10:45:33;;;;;;;4.63;4.17;;;;;;;7.28;nan;103860.31;6096379;28;20247;-70
2023/01/23 10:48:54;;;;;;;5.33;4.33;;;;;;;7.09;nan;103864.44;6102142;28;20817;-74
2023/01/23 10:52:36;;;;;;;8.87;5.07;;;;;;;7.33;nan;103855.72;6118598;28;20239;-72
2023/01/23 10:55:59;;;;;;;4.83;3.80;;;;;;;7.26;nan;103865.75;6105939;28;20243;-73
2023/01/23 10:59:28;;;;;;;14.80;4.53;;;;;;;7.36;nan;103854.78;6119264;28;20234;-72
2023/01/23 11:02:48;;;;;;;5.80;4.90;;;;;;;7.52;nan;103854.31;6097434;28;20235;-69
2023/01/23 11:06:17;;;;;;;4.03;3.63;;;;;;;7.76;nan;103861.63;6113063;28;20242;-73
2023/01/23 11:09:53;;;;;;;4.20;3.80;;;;;;;7.75;nan;103854.50;6120441;28;20352;-74
2023/01/23 11:13:26;;;;;;;7.93;5.53;;;;;;;7.71;nan;103868.97;6127060;28;20490;-74
2023/01/23 11:17:00;;;;;;;5.77;5.10;;;;;;;7.69;nan;103865.44;6123010;28;20239;-73
2023/01/23 11:20:27;;;;;;;4.90;3.67;;;;;;;7.57;nan;103868.44;6112918;28;20680;-74
2023/01/23 11:23:48;;;;;;;5.50;3.60;;;;;;;7.53;nan;103868.59;6094334;29;20236;-74
2023/01/23 11:27:25;;;;;;;4.60;3.77;;;;;;;7.49;nan;103869.63;6107961;28;20263;-74
2023/01/23 11:30:49;;;;;;;4.93;3.70;;;;;;;7.42;nan;103868.00;6111649;28;20404;-73
2023/01/23 11:34:13;;;;;;;6.97;4.17;;;;;;;7.41;nan;103872.50;6111887;28;20526;-74
2023/01/23 11:37:38;;;;;;;6.07;4.27;;;;;;;7.16;nan;103871.41;6130890;28;20243;-73
2023/01/23 11:40:59;;;;;;;5.60;3.63;;;;;;;7.37;nan;103875.28;6112476;28;20234;-74
2023/01/23 11:44:22;;;;;;;9.47;5.53;;;;;;;7.56;nan;103866.72;6106232;28;20703;-73
2023/01/23 11:48:02;;;;;;;3.53;3.10;;;;;;;7.51;nan;103878.50;6107486;28;20769;-74
2023/01/23 11:51:34;;;;;;;8.10;5.50;;;;;;;7.20;nan;103881.13;6100890;28;21202;-72
2023/01/23 11:55:11;;;;;;;9.23;6.37;;;;;;;7.41;nan;103875.19;6093176;28;20234;-70
2023/01/23 11:58:52;;;;;;;7.33;4.20;;;;;;;7.74;nan;103871.53;6125399;28;21140;-72
2023/01/23 12:02:52;;;;;;;9.83;6.27;;;;;;;7.79;nan;103884.84;6114848;28;20239;-72
2023/01/23 12:06:37;;;;;;;8.33;4.90;;;;;;;7.90;nan;103880.03;6118456;28;20234;-70
2023/01/23 12:10:05;;;;;;;4.93;3.80;;;;;;;7.90;nan;103882.72;6119698;28;20235;-74
2023/01/23 12:13:43;;;;;;;4.13;3.67;;;;;;;7.73;nan;103882.34;6128929;28;20314;-73
2023/01/23 12:17:15;;;;;;;4.83;3.70;;;;;;;7.73;nan;103882.34;6120921;28;20243;-72
2023/01/23 12:20:48;;;;;;;4.70;3.57;;;;;;;7.75;nan;103878.69;6122554;28;20238;-74
2023/01/23 12:24:20;;;;;;;4.67;4.00;;;;;;;7.76;nan;103877.75;6094925;28;20252;-74
2023/01/23 12:27:43;;;;;;;7.20;4.03;;;;;;;7.75;nan;103875.13;6110611;28;20240;-72
2023/01/23 12:31:15;;;;;;;4.77;4.07;;;;;;;7.96;nan;103879.84;6092476;28;20219;-73
2023/01/23 12:34:51;;;;;;;8.23;4.00;;;;;;;8.01;nan;103878.78;6120270;28;20231;-69
2023/01/23 12:38:24;;;;;;;6.37;4.37;;;;;;;7.82;nan;103866.81;6120003;28;20318;-71
2023/01/23 12:41:50;;;;;;;5.90;4.30;;;;;;;7.94;nan;103879.03;6124980;28;20235;-70
2023/01/23 12:45:20;;;;;;;8.80;4.30;;;;;;;7.67;nan;103878.03;6111403;28;20251;-71
2023/01/23 12:48:46;;;;;;;6.53;4.27;;;;;;;7.69;nan;103880.66;6091084;28;20571;-70
2023/01/23 12:52:15;;;;;;;9.03;5.17;;;;;;;7.88;nan;103887.25;6086262;28;20260;-72
2023/01/23 12:55:39;;;;;;;7.63;4.33;;;;;;;7.80;nan;103883.94;6107877;28;20263;-71
2023/01/23 12:59:13;;;;;;;6.83;4.53;;;;;;;7.51;nan;103876.69;6107553;28;20239;-69
2023/01/23 13:02:40;;;;;;;4.70;4.30;;;;;;;7.55;nan;103882.88;6107719;28;20236;-72
2023/01/23 13:06:13;;;;;;;4.23;3.40;;;;;;;7.71;nan;103873.44;6098948;28;20842;-73
2023/01/23 13:09:46;;;;;;;5.27;3.93;;;;;;;7.83;nan;103870.38;6096981;28;20238;-71
2023/01/23 13:13:08;;;;;;;4.80;4.33;;;;;;;7.68;nan;103878.88;6116172;28;20342;-72
2023/01/23 13:16:31;;;;;;;5.53;4.00;;;;;;;7.40;nan;103883.28;6115361;28;20227;-74
2023/01/23 13:23:31;;;;;;;4.47;4.10;;;;;;;7.65;nan;103887.03;6109161;28;20242;-73
2023/01/23 13:26:52;;;;;;;7.80;4.70;;;;;;;7.72;nan;103883.25;6075998;28;20239;-72
2023/01/23 13:30:36;;;;;;;9.67;6.27;;;;;;;7.46;nan;103885.78;6092614;28;20248;-71
2023/01/23 13:33:59;;;;;;;7.90;4.73;;;;;;;7.20;nan;103886.47;6092191;29;20240;-70
2023/01/23 13:37:49;;;;;;;3.93;3.60;;;;;;;7.39;nan;103887.75;6098598;29;20240;-73
2023/01/23 13:41:30;;;;;;;4.73;3.87;;;;;;;7.31;nan;103889.78;6083597;28;20753;-71
2023/01/23 13:45:36;;;;;;;6.00;5.40;;;;;;;7.64;nan;103896.91;6098448;28;20234;-71
2023/01/23 13:56:47;;;;;;;7.30;5.13;;;;;;;7.80;nan;103906.25;6127619;28;20327;-78
2023/01/23 14:00:16;;;;;;;7.93;4.40;;;;;;;7.83;nan;103905.31;6105353;28;20238;-71
2023/01/23 14:07:41;;;;;;;7.23;4.30;;;;;;;7.58;nan;103897.06;6095362;28;20326;-71
2023/01/23 14:11:02;;;;;;;7.70;3.70;;;;;;;8.05;nan;103899.25;6106903;28;20255;-71
2023/01/23 14:18:03;;;;;;;7.50;4.23;;;;;;;7.29;nan;103894.31;6104621;28;20310;-74
2023/01/23 14:21:26;;;;;;;5.90;4.73;;;;;;;7.32;nan;103894.22;6109241;28;20227;-75
2023/01/23 14:24:51;;;;;;;6.93;4.33;;;;;;;7.33;nan;103895.09;6126584;28;20230;-73
2023/01/23 14:28:16;;;;;;;10.20;5.27;;;;;;;7.51;nan;103889.25;6133639;28;20234;-71
2023/01/23 14:31:37;;;;;;;8.77;5.97;;;;;;;7.72;nan;103886.81;6115108;28;20550;-73
2023/01/23 14:34:58;;;;;;;7.03;5.17;;;;;;;7.73;nan;103888.59;6119257;28;20325;-69
2023/01/23 14:38:27;;;;;;;6.20;3.90;;;;;;;7.55;nan;103891.78;6112485;28;20232;-70
2023/01/23 14:41:50;;;;;;;7.73;5.07;;;;;;;7.48;nan;103892.88;6110197;28;20240;-73
2023/01/23 14:45:13;;;;;;;5.73;4.00;;;;;;;7.62;nan;103896.06;6101688;28;20238;-70
2023/01/23 14:48:38;;;;;;;5.43;3.97;;;;;;;7.51;nan;103903.53;6104131;28;20243;-72
2023/01/23 14:52:00;;;;;;;6.27;4.87;;;;;;;7.52;nan;103888.31;6102330;28;20272;-71
2023/01/23 14:55:23;;;;;;;8.00;5.47;;;;;;;7.58;nan;103901.56;6123476;28;20235;-71
2023/01/23 14:58:46;;;;;;;5.90;4.97;;;;;;;7.64;nan;103890.63;6133114;28;20870;-71
2023/01/23 15:02:25;;;;;;;6.10;4.63;;;;;;;7.70;nan;103903.88;6119479;28;20239;-71
2023/01/23 15:05:58;;;;;;;6.57;5.30;;;;;;;7.76;nan;103890.31;6094114;28;20278;-73
2023/01/23 15:09:24;;;;;;;8.43;4.17;;;;;;;7.86;nan;103883.75;6093566;28;20250;-70
2023/01/23 15:12:51;;;;;;;12.77;8.13;;;;;;;7.50;nan;103891.03;6128355;28;20232;-70
2023/01/23 15:16:18;;;;;;;7.53;4.67;;;;;;;7.48;nan;103882.16;6132254;28;20514;-70
2023/01/23 15:19:41;;;;;;;4.93;4.43;;;;;;;7.53;nan;103880.19;6122778;28;20234;-70
2023/01/23 15:23:27;;;;;;;5.43;3.83;;;;;;;7.50;nan;103874.94;6138730;28;20278;-71
2023/01/23 15:27:03;;;;;;;6.03;5.43;;;;;;;7.59;nan;103860.38;6133961;28;20689;-71
2023/01/23 15:30:40;;;;;;;6.73;4.67;;;;;;;7.55;nan;103862.25;6112776;28;20230;-71
2023/01/23 15:34:22;;;;;;;14.53;10.17;;;;;;;7.57;nan;103872.97;6123141;28;20329;-70
2023/01/23 15:37:47;;;;;;;13.73;8.60;;;;;;;7.50;nan;103861.50;6145378;28;20234;-70
2023/01/23 15:41:09;;;;;;;6.03;5.20;;;;;;;7.41;nan;103860.88;6138114;28;20230;-70
2023/01/23 15:44:32;;;;;;;9.73;7.00;;;;;;;7.37;nan;103857.41;6129266;28;20238;-69
2023/01/23 15:47:53;;;;;;;15.30;7.83;;;;;;;7.24;nan;103858.66;6141905;28;20247;-70
2023/01/23 15:51:15;;;;;;;11.37;7.57;;;;;;;7.26;nan;103871.09;6132113;28;20227;-69
2023/01/23 15:54:39;;;;;;;5.57;4.93;;;;;;;7.30;nan;103868.34;6124651;28;20556;-69
2023/01/23 15:58:00;;;;;;;6.73;4.97;;;;;;;7.31;nan;103871.00;6114343;28;20244;-69
2023/01/23 16:01:21;;;;;;;8.60;5.10;;;;;;;7.35;nan;103877.16;6113937;28;20235;-69
2023/01/23 16:04:42;;;;;;;6.33;5.67;;;;;;;7.49;nan;103880.34;6111602;28;20235;-69
2023/01/23 16:08:12;;;;;;;12.37;9.97;;;;;;;7.51;nan;103878.50;6135996;28;20250;-71
2023/01/23 16:11:36;;;;;;;15.73;8.77;;;;;;;7.46;nan;103883.09;6130925;28;20243;-69
2023/01/23 16:14:57;;;;;;;7.73;6.93;;;;;;;7.33;nan;103881.66;6119946;28;20222;-70
2023/01/23 16:18:18;;;;;;;8.00;5.57;;;;;;;7.47;nan;103883.06;6127651;28;20244;-69
2023/01/23 16:21:41;;;;;;;5.83;4.83;;;;;;;7.54;nan;103883.78;6130431;28;20258;-70
2023/01/23 16:25:04;;;;;;;18.27;14.83;;;;;;;7.61;nan;103880.00;6133622;28;20230;-70
2023/01/23 16:28:25;;;;;;;10.07;9.03;;;;;;;7.37;nan;103888.72;6140165;28;20239;-70
2023/01/23 16:31:46;;;;;;;11.30;6.17;;;;;;;7.41;nan;103898.44;6129114;28;20238;-70
2023/01/23 16:35:11;;;;;;;10.53;6.83;;;;;;;7.37;nan;103899.44;6112756;28;20227;-70
2023/01/23 16:38:31;;;;;;;6.83;6.23;;;;;;;7.38;nan;103901.22;6115578;28;20263;-71
2023/01/23 16:41:54;;;;;;;16.10;12.03;;;;;;;7.75;nan;103891.22;6111919;28;20239;-70
2023/01/23 16:45:17;;;;;;;11.83;7.83;;;;;;;7.78;nan;103904.56;6102899;28;20334;-70
2023/01/23 16:48:37;;;;;;;11.80;8.23;;;;;;;7.53;nan;103904.34;6108032;28;20236;-70
2023/01/23 16:52:00;;;;;;;21.50;15.13;;;;;;;7.55;nan;103905.19;6110201;28;21016;-69
2023/01/23 16:55:22;;;;;;;8.93;6.53;;;;;;;7.72;nan;103916.34;6120991;28;20230;-70
2023/01/23 16:58:45;;;;;;;7.83;5.87;;;;;;;7.70;nan;103909.25;6108331;28;20235;-70